Time;durP1;ratioP1;P1;durP2;ratioP2;P2;SDS_P1;SDS_P2;PMS_P1;PMS_P2;Temp;Humidity;BMP_temperature;BMP_pressure;BME280_temperature;BME280_humidity;BME280_pressure;Samples;Min_cycle;Max_cycle;Signal;HPM_P1;HPM_P2
2022/11/17 00:01:37;;;;;;;26.25;19.85;;;;;;;2.97;100.00;98598.56;5014320;28;20091;-82
2022/11/17 00:04:03;;;;;;;36.60;23.35;;;;;;;2.88;100.00;98585.19;5031274;28;20041;-82
2022/11/17 00:06:28;;;;;;;27.77;20.05;;;;;;;2.95;100.00;98594.38;5030641;28;20049;-82
2022/11/17 00:08:54;;;;;;;26.42;20.15;;;;;;;2.98;100.00;98602.81;5030826;28;20473;-82
2022/11/17 00:11:19;;;;;;;21.73;18.15;;;;;;;2.94;100.00;98588.38;5014011;28;20381;-81
2022/11/17 00:16:28;;;;;;;25.42;19.75;;;;;;;2.98;100.00;98595.09;5030898;28;20037;-82
2022/11/17 00:21:37;;;;;;;42.10;29.67;;;;;;;2.96;100.00;98596.91;5030502;28;20559;-82
2022/11/17 00:24:03;;;;;;;26.42;20.73;;;;;;;2.95;100.00;98595.22;5030555;28;20061;-81
2022/11/17 00:26:31;;;;;;;24.67;20.00;;;;;;;2.96;100.00;98593.50;5033846;28;20037;-82
2022/11/17 00:28:58;;;;;;;22.20;18.73;;;;;;;2.92;100.00;98589.34;5052771;28;20024;-82
2022/11/17 00:34:16;;;;;;;25.15;20.45;;;;;;;2.94;100.00;98596.09;5052809;28;20437;-81
2022/11/17 00:36:44;;;;;;;22.20;18.45;;;;;;;2.92;100.00;98577.31;5052779;28;20052;-84
2022/11/17 00:39:11;;;;;;;41.30;27.98;;;;;;;3.03;100.00;98594.13;5052768;28;20033;-84
2022/11/17 00:41:36;;;;;;;21.15;17.83;;;;;;;2.93;100.00;98584.13;5052335;28;20094;-84
2022/11/17 00:44:02;;;;;;;24.05;19.27;;;;;;;3.00;100.00;98589.94;5034506;28;20021;-84
2022/11/17 00:46:28;;;;;;;82.28;43.67;;;;;;;2.98;100.00;98595.09;5052741;28;20111;-84
2022/11/17 00:48:53;;;;;;;54.58;32.30;;;;;;;2.95;100.00;98581.50;5052574;28;20420;-84
2022/11/17 00:51:19;;;;;;;24.83;19.35;;;;;;;2.95;100.00;98592.66;5052309;28;20071;-84
2022/11/17 00:53:45;;;;;;;30.25;21.40;;;;;;;2.83;100.00;98562.19;5052318;28;20024;-84
2022/11/17 00:56:11;;;;;;;117.55;53.30;;;;;;;2.97;100.00;98593.44;5034350;28;20024;-84
2022/11/17 00:58:36;;;;;;;28.42;20.25;;;;;;;2.96;100.00;98589.19;5052276;28;20025;-84
2022/11/17 01:01:02;;;;;;;26.55;21.15;;;;;;;2.89;100.00;98568.84;5052428;28;20028;-84
2022/11/17 01:03:28;;;;;;;24.83;19.60;;;;;;;3.02;100.00;98589.88;5052100;28;20074;-84
2022/11/17 01:05:53;;;;;;;27.77;21.17;;;;;;;3.04;100.00;98588.09;5034336;28;20025;-84
2022/11/17 01:08:18;;;;;;;19.08;16.92;;;;;;;3.03;100.00;98583.81;5051896;28;20158;-84
2022/11/17 01:10:44;;;;;;;24.42;19.63;;;;;;;3.05;100.00;98589.78;5052065;28;20017;-84
2022/11/17 01:13:09;;;;;;;24.50;19.17;;;;;;;3.04;100.00;98577.81;5034059;28;20054;-84
2022/11/17 01:15:34;;;;;;;23.73;20.08;;;;;;;3.06;100.00;98588.88;5052004;28;20473;-84
2022/11/17 01:18:00;;;;;;;32.35;24.58;;;;;;;3.10;100.00;98583.59;5052105;28;20032;-84
2022/11/17 01:20:25;;;;;;;24.25;19.17;;;;;;;3.03;100.00;98584.66;5033840;28;20024;-84
2022/11/17 01:22:53;;;;;;;28.27;20.27;;;;;;;3.08;100.00;98576.81;5052031;28;20039;-84
2022/11/17 01:25:18;;;;;;;28.63;23.08;;;;;;;3.02;100.00;98567.56;5029118;28;20034;-84
2022/11/17 01:27:44;;;;;;;23.67;20.20;;;;;;;3.07;100.00;98575.97;5029334;28;20077;-84
2022/11/17 01:30:10;;;;;;;24.23;19.83;;;;;;;2.96;100.00;98567.78;5029564;28;20116;-84
2022/11/17 01:32:35;;;;;;;25.33;19.73;;;;;;;2.99;100.00;98571.09;5029032;28;20058;-82
2022/11/17 01:35:01;;;;;;;26.55;20.15;;;;;;;2.99;100.00;98568.53;5029553;28;20036;-82
2022/11/17 01:37:26;;;;;;;22.52;18.15;;;;;;;3.00;100.00;98566.78;5029179;28;20041;-81
2022/11/17 01:39:51;;;;;;;24.65;18.80;;;;;;;2.98;100.00;98569.38;5012885;28;20042;-82
2022/11/17 01:42:20;;;;;;;25.55;21.45;;;;;;;2.95;100.00;98561.78;5012819;28;20030;-82
2022/11/17 01:45:04;;;;;;;22.27;18.63;;;;;;;3.07;100.00;98570.81;5029476;28;20520;-82
2022/11/17 01:47:44;;;;;;;25.63;21.00;;;;;;;3.09;100.00;98578.50;5029176;28;20039;-82
2022/11/17 01:50:17;;;;;;;35.20;25.58;;;;;;;3.08;100.00;98569.09;5029085;28;20132;-82
2022/11/17 01:52:43;;;;;;;23.23;19.63;;;;;;;3.05;100.00;98571.78;5029035;28;20030;-82
2022/11/17 01:55:10;;;;;;;27.65;20.50;;;;;;;3.01;100.00;98558.16;5031581;28;20036;-81
2022/11/17 01:57:45;;;;;;;29.98;22.35;;;;;;;3.09;100.00;98573.34;5037767;28;20487;-82
2022/11/17 02:00:11;;;;;;;27.70;21.27;;;;;;;3.08;100.00;98575.09;5055834;28;20306;-82
2022/11/17 02:02:40;;;;;;;30.88;22.20;;;;;;;3.12;100.00;98568.09;5055442;28;20035;-82
2022/11/17 02:05:20;;;;;;;26.80;21.70;;;;;;;3.12;100.00;98568.94;5055490;28;20013;-82
2022/11/17 02:07:48;;;;;;;30.33;22.00;;;;;;;3.12;100.00;98560.38;5056028;28;20047;-82
2022/11/17 02:10:14;;;;;;;25.45;20.48;;;;;;;3.11;100.00;98564.66;5037630;28;20017;-82
2022/11/17 02:12:40;;;;;;;26.55;20.60;;;;;;;3.12;100.00;98565.50;5037195;28;20025;-82
2022/11/17 02:15:05;;;;;;;25.10;18.55;;;;;;;3.11;100.00;98556.13;5037474;28;20025;-82
2022/11/17 02:17:36;;;;;;;31.23;22.77;;;;;;;3.04;100.00;98542.63;5055030;28;20109;-82
2022/11/17 02:20:10;;;;;;;31.42;21.27;;;;;;;3.13;100.00;98560.34;5055758;28;20021;-82
2022/11/17 02:22:53;;;;;;;31.23;21.95;;;;;;;3.14;100.00;98553.44;5055079;28;20044;-82
2022/11/17 02:25:55;;;;;;;28.75;22.00;;;;;;;3.16;100.00;98555.09;5055180;28;20047;-82
2022/11/17 02:28:26;;;;;;;43.55;27.10;;;;;;;3.14;100.00;98551.72;5055187;28;20017;-82
2022/11/17 02:31:13;;;;;;;23.33;19.45;;;;;;;3.17;100.00;98548.22;5055245;28;20372;-82
2022/11/17 02:34:05;;;;;;;25.08;19.80;;;;;;;3.12;100.00;98548.38;5055006;28;20087;-82
2022/11/17 02:36:39;;;;;;;31.98;23.50;;;;;;;3.15;100.00;98547.41;4954339;29;20031;-82
2022/11/17 02:39:21;;;;;;;23.98;19.83;;;;;;;3.14;100.00;98544.00;4938325;29;20614;-82
2022/11/17 02:41:55;;;;;;;25.95;20.90;;;;;;;3.10;100.00;98542.41;4915774;29;20119;-82
2022/11/17 02:44:41;;;;;;;24.35;19.75;;;;;;;3.17;100.00;98548.22;4900358;29;20040;-82
2022/11/17 02:47:28;;;;;;;26.83;21.25;;;;;;;3.09;100.00;98533.03;4916480;29;20040;-82
2022/11/17 02:49:58;;;;;;;35.40;23.77;;;;;;;3.12;100.00;98544.94;4916287;29;20036;-81
2022/11/17 02:52:25;;;;;;;65.97;37.35;;;;;;;3.14;100.00;98554.28;4900231;29;20038;-82
2022/11/17 02:54:50;;;;;;;32.88;24.15;;;;;;;3.10;100.00;98545.00;4915976;29;20063;-82
2022/11/17 02:57:29;;;;;;;22.42;18.45;;;;;;;3.12;100.00;98545.78;4900107;29;20036;-82
2022/11/17 02:59:57;;;;;;;25.98;19.88;;;;;;;3.10;100.00;98546.72;4900193;29;20512;-82
2022/11/17 03:02:51;;;;;;;29.20;23.60;;;;;;;3.04;100.00;98547.78;4915963;29;20084;-81
2022/11/17 03:05:34;;;;;;;28.30;20.25;;;;;;;3.13;100.00;98559.50;4915342;29;20032;-82
2022/11/17 03:08:14;;;;;;;66.65;33.50;;;;;;;3.03;100.00;98532.38;4915702;29;20539;-81
2022/11/17 03:10:59;;;;;;;36.88;25.33;;;;;;;3.17;100.00;98545.63;4915615;29;20031;-82
2022/11/17 03:13:46;;;;;;;24.67;20.15;;;;;;;3.15;100.00;98549.97;4989781;28;20368;-82
2022/11/17 03:16:29;;;;;;;26.48;19.92;;;;;;;3.12;100.00;98539.78;5036485;28;20039;-82
2022/11/17 03:19:23;;;;;;;24.02;19.48;;;;;;;3.09;100.00;98545.06;5036373;28;20067;-82
2022/11/17 03:22:06;;;;;;;25.85;20.63;;;;;;;3.14;100.00;98558.59;5011585;28;20077;-81
2022/11/17 03:24:56;;;;;;;29.20;22.20;;;;;;;3.08;100.00;98545.94;4995366;28;20225;-81
2022/11/17 03:27:26;;;;;;;31.08;23.65;;;;;;;3.08;100.00;98548.53;5012161;28;20043;-82
2022/11/17 03:29:56;;;;;;;28.80;20.38;;;;;;;3.03;100.00;98540.09;5012198;28;20022;-81
2022/11/17 03:32:23;;;;;;;36.67;25.90;;;;;;;3.10;100.00;98549.31;5011522;28;20040;-82
2022/11/17 03:34:55;;;;;;;27.13;21.20;;;;;;;3.10;100.00;98551.88;4995024;28;20018;-81
2022/11/17 03:37:22;;;;;;;69.88;39.42;;;;;;;3.13;100.00;98552.63;5011654;28;20043;-81
2022/11/17 03:39:54;;;;;;;39.22;27.25;;;;;;;3.14;100.00;98554.28;4994941;28;20648;-82
2022/11/17 03:42:23;;;;;;;27.02;20.13;;;;;;;3.18;100.00;98557.59;5011569;28;20033;-82
2022/11/17 03:44:54;;;;;;;26.45;21.27;;;;;;;3.14;100.00;98554.28;5011331;28;20153;-82
2022/11/17 03:47:21;;;;;;;;;;;;;;;3.19;100.00;98556.69;5011932;28;20085;-81
2022/11/17 03:49:58;;;;;;;39.50;25.15;;;;;;;3.21;100.00;98567.78;5011466;28;19909;-81
2022/11/17 03:52:25;;;;;;;27.70;22.27;;;;;;;3.09;100.00;98558.75;5025279;28;20043;-81
2022/11/17 03:54:52;;;;;;;27.33;21.75;;;;;;;3.17;100.00;98561.06;5035338;28;20029;-81
2022/11/17 03:57:49;;;;;;;23.27;19.20;;;;;;;3.18;100.00;98568.72;5035594;28;20028;-81
2022/11/17 04:00:16;;;;;;;24.73;20.23;;;;;;;3.12;100.00;98553.50;5053835;28;20491;-82
2022/11/17 04:02:44;;;;;;;27.42;20.17;;;;;;;3.18;100.00;98562.75;5035295;28;20025;-82
2022/11/17 04:05:11;;;;;;;26.35;20.65;;;;;;;3.13;100.00;98556.91;5035456;28;20113;-82
2022/11/17 04:07:42;;;;;;;28.33;23.38;;;;;;;3.20;100.00;98564.38;5035074;28;20221;-81
2022/11/17 04:10:13;;;;;;;40.28;25.30;;;;;;;3.17;100.00;98548.22;5053087;28;20033;-82
2022/11/17 04:18:18;;;;;;;27.75;21.58;;;;;;;3.20;100.00;98558.38;4990586;28;20030;-82
2022/11/17 04:20:43;;;;;;;25.77;20.58;;;;;;;3.22;100.00;98565.16;4991204;28;20030;-81
2022/11/17 04:23:14;;;;;;;23.77;20.17;;;;;;;3.21;100.00;98563.47;4991364;28;20037;-82
2022/11/17 04:28:36;;;;;;;27.10;21.73;;;;;;;3.20;100.00;98548.94;4991520;28;20572;-82
2022/11/17 04:31:15;;;;;;;26.73;20.42;;;;;;;3.19;100.00;98547.25;4991295;28;20109;-82
2022/11/17 04:33:43;;;;;;;27.17;20.67;;;;;;;3.14;100.00;98541.41;4990689;28;20572;-82
2022/11/17 04:36:10;;;;;;;24.13;18.52;;;;;;;3.22;100.00;98554.03;4974610;28;20027;-81
2022/11/17 04:38:35;;;;;;;28.85;21.98;;;;;;;3.11;100.00;98533.81;4990835;28;20440;-81
2022/11/17 04:43:50;;;;;;;28.40;23.33;;;;;;;3.20;100.00;98545.50;4990987;28;20484;-82
2022/11/17 04:46:16;;;;;;;24.95;20.08;;;;;;;3.17;100.00;98546.47;4990960;28;20026;-82
2022/11/17 04:48:42;;;;;;;24.10;19.30;;;;;;;3.22;100.00;98551.47;4990623;28;20038;-81
2022/11/17 04:51:08;;;;;;;39.85;26.58;;;;;;;3.19;100.00;98542.09;4974530;28;20034;-82
2022/11/17 04:53:33;;;;;;;23.92;19.83;;;;;;;3.20;100.00;98559.25;4992413;28;20037;-84
2022/11/17 04:56:00;;;;;;;27.52;20.08;;;;;;;3.15;100.00;98542.25;5034390;28;20021;-84
2022/11/17 04:58:26;;;;;;;25.95;20.40;;;;;;;3.23;100.00;98556.53;5052511;28;20500;-84
2022/11/17 05:00:51;;;;;;;25.85;21.42;;;;;;;3.18;100.00;98542.16;5052201;28;20032;-84
2022/11/17 05:03:17;;;;;;;25.75;21.48;;;;;;;3.23;100.00;98550.56;5052404;28;20028;-84
2022/11/17 05:05:47;;;;;;;24.67;20.10;;;;;;;3.17;100.00;98553.34;5052042;28;20028;-85
2022/11/17 05:08:12;;;;;;;27.52;21.42;;;;;;;3.21;100.00;98552.34;5052079;28;20035;-84
2022/11/17 05:13:24;;;;;;;21.35;18.27;;;;;;;3.16;100.00;98544.78;5052284;28;20044;-84
2022/11/17 05:18:38;;;;;;;22.55;18.63;;;;;;;3.22;100.00;98554.03;5052082;28;20040;-85
2022/11/17 05:21:05;;;;;;;26.30;21.23;;;;;;;3.25;100.00;98553.94;5051870;28;20025;-84
2022/11/17 05:26:15;;;;;;;28.75;22.92;;;;;;;3.22;100.00;98556.59;5052085;28;20036;-84
2022/11/17 05:28:41;;;;;;;29.10;23.23;;;;;;;3.18;100.00;98558.44;5033419;28;20025;-84
2022/11/17 05:31:07;;;;;;;28.55;21.95;;;;;;;3.21;100.00;98563.47;5051650;28;20090;-82
2022/11/17 05:33:32;;;;;;;28.20;22.67;;;;;;;3.16;100.00;98557.66;5051871;28;20053;-82
2022/11/17 05:35:58;;;;;;;32.25;21.13;;;;;;;3.22;100.00;98570.31;5051975;28;20028;-82
2022/11/17 05:38:23;;;;;;;26.98;22.90;;;;;;;3.18;100.00;98570.47;5052162;28;20025;-82
2022/11/17 05:40:49;;;;;;;28.10;21.70;;;;;;;3.12;100.00;98558.66;5051809;28;20052;-82
2022/11/17 05:43:14;;;;;;;26.10;20.65;;;;;;;3.14;100.00;98564.56;5051995;28;20021;-83
2022/11/17 05:45:40;;;;;;;25.80;20.23;;;;;;;3.22;100.00;98583.16;5051661;28;20054;-82
2022/11/17 05:48:05;;;;;;;23.42;18.65;;;;;;;3.24;100.00;98580.53;5033929;28;20021;-82
2022/11/17 05:50:30;;;;;;;28.20;20.75;;;;;;;3.23;100.00;98573.72;5051732;28;20017;-82
2022/11/17 05:52:56;;;;;;;25.98;19.83;;;;;;;3.21;100.00;98570.38;5051553;28;20052;-82
2022/11/17 05:55:21;;;;;;;27.90;23.05;;;;;;;3.19;100.00;98556.69;5051969;28;20021;-82
2022/11/17 05:57:48;;;;;;;26.75;21.75;;;;;;;3.14;100.00;98550.88;5051497;28;20033;-82
2022/11/17 06:00:14;;;;;;;35.88;29.88;;;;;;;3.22;100.00;98572.88;5033762;28;20013;-84
2022/11/17 06:02:47;;;;;;;29.60;25.33;;;;;;;3.22;100.00;98570.31;5051257;28;20100;-84
2022/11/17 06:05:13;;;;;;;29.15;23.23;;;;;;;3.16;100.00;98556.78;5051652;28;20025;-85
2022/11/17 06:07:38;;;;;;;29.15;23.08;;;;;;;3.17;100.00;98556.75;5033484;28;20111;-85
2022/11/17 06:10:04;;;;;;;28.73;21.55;;;;;;;3.23;100.00;98566.00;5033751;28;20055;-84
2022/11/17 06:12:29;;;;;;;33.53;24.42;;;;;;;3.26;100.00;98560.75;5033630;28;20052;-84
2022/11/17 06:14:55;;;;;;;27.75;21.05;;;;;;;3.20;100.00;98561.81;5033290;28;20025;-85
2022/11/17 06:17:29;;;;;;;27.60;21.23;;;;;;;3.24;100.00;98562.53;5051629;28;20037;-85
2022/11/17 06:20:01;;;;;;;27.52;22.48;;;;;;;3.24;100.00;98560.81;5051276;28;20529;-85
2022/11/17 06:22:28;;;;;;;23.45;19.60;;;;;;;3.20;100.00;98548.06;5033639;28;20032;-84
2022/11/17 06:24:54;;;;;;;26.60;21.70;;;;;;;3.25;100.00;98570.22;5051228;28;20025;-84
2022/11/17 06:27:19;;;;;;;31.67;24.63;;;;;;;3.28;100.00;98563.25;5033506;28;20255;-84
2022/11/17 06:29:45;;;;;;;32.80;27.38;;;;;;;3.25;100.00;98559.91;5051053;28;20319;-84
2022/11/17 06:32:13;;;;;;;27.75;21.05;;;;;;;3.31;100.00;98570.88;5051278;28;20021;-84
2022/11/17 06:34:38;;;;;;;26.15;22.08;;;;;;;3.30;100.00;98567.47;5051113;28;20043;-84
2022/11/17 06:37:04;;;;;;;27.90;23.20;;;;;;;3.29;100.00;98564.94;5051519;28;20088;-84
2022/11/17 06:39:29;;;;;;;32.85;24.00;;;;;;;3.21;100.00;98552.34;5051362;28;20021;-84
2022/11/17 06:41:54;;;;;;;29.90;23.50;;;;;;;3.23;100.00;98553.97;5053761;28;20025;-84
2022/11/17 06:44:20;;;;;;;27.77;21.35;;;;;;;3.24;100.00;98575.38;5054925;28;20070;-84
2022/11/17 06:46:45;;;;;;;45.60;29.15;;;;;;;3.27;100.00;98561.59;5054764;28;20114;-84
2022/11/17 06:49:10;;;;;;;37.92;28.48;;;;;;;3.19;100.00;98565.25;5054970;28;20107;-84
2022/11/17 06:51:35;;;;;;;32.25;24.92;;;;;;;3.25;100.00;98579.66;5054838;28;20058;-84
2022/11/17 06:54:02;;;;;;;25.30;19.90;;;;;;;3.24;100.00;98581.41;5054526;28;20066;-84
2022/11/17 06:56:28;;;;;;;33.85;24.52;;;;;;;3.20;100.00;98568.66;5036636;28;20056;-84
2022/11/17 06:58:55;;;;;;;28.52;21.35;;;;;;;3.21;100.00;98585.81;5012010;28;20058;-84
2022/11/17 07:01:20;;;;;;;23.75;19.33;;;;;;;3.13;100.00;98562.91;5011476;28;20205;-84
2022/11/17 07:03:45;;;;;;;26.65;22.75;;;;;;;3.27;100.00;98579.59;4995103;28;20073;-82
2022/11/17 07:06:11;;;;;;;26.58;21.48;;;;;;;3.27;100.00;98587.31;5012411;28;20042;-82
2022/11/17 07:08:38;;;;;;;21.85;18.05;;;;;;;3.21;100.00;98575.50;5012314;28;20081;-82
2022/11/17 07:11:09;;;;;;;28.23;22.65;;;;;;;3.28;100.00;98586.41;5011992;28;20584;-82
2022/11/17 07:13:36;;;;;;;30.83;22.55;;;;;;;3.27;100.00;98590.72;5012095;28;20045;-83
2022/11/17 07:16:08;;;;;;;30.42;23.38;;;;;;;3.21;100.00;98572.94;4995335;28;20026;-82
2022/11/17 07:18:34;;;;;;;23.48;18.73;;;;;;;3.20;100.00;98571.25;5012107;28;20136;-82
2022/11/17 07:21:04;;;;;;;29.48;22.17;;;;;;;3.17;100.00;98568.78;4995418;28;20436;-83
2022/11/17 07:23:33;;;;;;;27.55;23.10;;;;;;;3.27;100.00;98579.59;5011804;28;20022;-82
2022/11/17 07:26:00;;;;;;;38.28;26.92;;;;;;;3.26;100.00;98573.63;4995215;28;20021;-83
2022/11/17 07:28:26;;;;;;;22.95;18.13;;;;;;;3.34;100.00;98579.34;5011889;28;20030;-83
2022/11/17 07:30:51;;;;;;;22.35;19.52;;;;;;;3.29;100.00;98563.22;5031675;28;20103;-82
2022/11/17 07:33:17;;;;;;;32.08;21.50;;;;;;;3.34;100.00;98561.31;5031494;28;20072;-82
2022/11/17 07:35:42;;;;;;;33.60;21.83;;;;;;;3.34;100.00;98570.78;5053761;28;20048;-82
2022/11/17 07:38:08;;;;;;;28.27;20.77;;;;;;;3.36;100.00;98567.25;5053892;28;20031;-82
2022/11/17 07:40:33;;;;;;;22.25;18.00;;;;;;;3.25;100.00;98557.34;5053753;28;20067;-82
2022/11/17 07:42:59;;;;;;;23.15;18.70;;;;;;;3.31;100.00;98582.00;5069196;28;20029;-82
2022/11/17 07:45:26;;;;;;;25.98;19.80;;;;;;;3.30;100.00;98582.91;5069292;28;20436;-82
2022/11/17 07:47:57;;;;;;;29.55;22.10;;;;;;;3.33;100.00;98590.53;5053754;28;20448;-82
2022/11/17 07:50:24;;;;;;;25.80;20.33;;;;;;;3.21;100.00;98571.19;5053759;28;20075;-82
2022/11/17 07:52:51;;;;;;;26.67;18.95;;;;;;;3.30;100.00;98588.06;5053281;28;20035;-82
2022/11/17 07:55:16;;;;;;;25.48;19.30;;;;;;;3.27;100.00;98590.72;5053830;28;20021;-82
2022/11/17 07:57:42;;;;;;;21.27;17.95;;;;;;;3.20;100.00;98569.53;5070823;28;20025;-82
2022/11/17 08:00:08;;;;;;;21.40;17.27;;;;;;;3.25;100.00;98577.94;5054027;28;20117;-82
2022/11/17 08:02:34;;;;;;;25.73;19.67;;;;;;;3.32;100.00;98573.41;5071148;28;20430;-82
2022/11/17 08:04:59;;;;;;;23.08;18.40;;;;;;;3.36;100.00;98574.97;5054027;28;20115;-82
2022/11/17 08:07:25;;;;;;;21.48;18.63;;;;;;;3.40;100.00;98576.53;5070830;28;20115;-82
2022/11/17 08:09:50;;;;;;;20.58;16.88;;;;;;;3.39;100.00;98592.88;5070688;28;20090;-82
2022/11/17 08:12:15;;;;;;;22.48;17.63;;;;;;;3.40;100.00;98581.69;5070890;28;20090;-82
2022/11/17 08:14:40;;;;;;;19.40;16.77;;;;;;;3.42;100.00;98579.91;5070780;28;20028;-82
2022/11/17 08:17:06;;;;;;;26.20;17.40;;;;;;;3.47;100.00;98583.16;5053732;28;20029;-82
2022/11/17 08:19:31;;;;;;;37.80;19.15;;;;;;;3.44;100.00;98577.28;5070680;28;20032;-83
2022/11/17 08:21:57;;;;;;;23.05;17.10;;;;;;;3.52;100.00;98577.84;5070423;28;20036;-82
2022/11/17 08:24:22;;;;;;;20.88;17.27;;;;;;;3.54;100.00;98578.66;5053636;28;20059;-82
2022/11/17 08:26:47;;;;;;;21.88;16.20;;;;;;;3.45;100.00;98569.50;5070514;28;20494;-82
2022/11/17 08:29:12;;;;;;;21.02;15.55;;;;;;;3.50;100.00;98587.38;5051280;28;20036;-82
2022/11/17 08:31:40;;;;;;;21.77;16.80;;;;;;;3.41;100.00;98569.66;5052981;28;20025;-82
2022/11/17 08:34:05;;;;;;;23.80;16.90;;;;;;;3.46;100.00;98581.50;5036581;28;20472;-82
2022/11/17 08:36:30;;;;;;;24.98;18.17;;;;;;;3.44;100.00;98585.84;5033731;28;20028;-82
2022/11/17 08:38:56;;;;;;;23.70;17.55;;;;;;;3.39;100.00;98587.75;5031122;28;20022;-82
2022/11/17 08:41:21;;;;;;;22.00;18.20;;;;;;;3.41;100.00;98582.53;5015239;28;20013;-83
2022/11/17 08:43:46;;;;;;;25.75;19.17;;;;;;;3.29;100.00;98580.38;5031331;28;20037;-82
2022/11/17 08:46:12;;;;;;;26.98;21.13;;;;;;;3.24;100.00;98589.13;5032749;28;20026;-82
2022/11/17 08:48:38;;;;;;;25.92;20.90;;;;;;;3.21;100.00;98583.22;5014895;28;20029;-82
2022/11/17 08:51:05;;;;;;;22.88;18.67;;;;;;;3.16;100.00;98585.09;5032550;28;20026;-82
2022/11/17 08:53:31;;;;;;;26.20;21.02;;;;;;;3.17;100.00;98605.66;5030981;28;20053;-83
2022/11/17 08:55:56;;;;;;;30.25;22.13;;;;;;;3.15;100.00;98583.44;5032452;28;20048;-83
2022/11/17 08:58:21;;;;;;;28.55;20.83;;;;;;;3.21;100.00;98596.94;5031233;28;20068;-83
2022/11/17 09:00:47;;;;;;;26.25;21.30;;;;;;;3.21;100.00;98621.81;5031200;28;20024;-83
2022/11/17 09:03:12;;;;;;;66.20;40.30;;;;;;;3.14;100.00;98605.75;5031957;28;20025;-83
2022/11/17 09:05:40;;;;;;;28.20;22.48;;;;;;;3.18;100.00;98619.34;5030987;28;20017;-83
2022/11/17 09:08:06;;;;;;;25.05;20.75;;;;;;;3.18;100.00;98604.75;5031908;28;20017;-83
2022/11/17 09:10:31;;;;;;;24.35;20.00;;;;;;;3.14;100.00;98598.03;5032394;28;20021;-83
2022/11/17 09:12:57;;;;;;;26.42;20.52;;;;;;;3.24;100.00;98607.13;5014329;28;20496;-83
2022/11/17 09:15:23;;;;;;;27.92;20.65;;;;;;;3.25;100.00;98608.81;5030949;28;20488;-83
2022/11/17 09:17:49;;;;;;;26.52;21.77;;;;;;;3.31;100.00;98622.34;5030624;28;20112;-83
2022/11/17 09:20:15;;;;;;;46.97;24.42;;;;;;;3.28;100.00;98615.56;5014324;28;20453;-83
2022/11/17 09:22:41;;;;;;;36.17;23.58;;;;;;;3.26;100.00;98619.94;5014263;28;20039;-83
2022/11/17 09:25:07;;;;;;;20.63;17.90;;;;;;;3.21;100.00;98609.81;5032042;28;20100;-83
2022/11/17 09:27:32;;;;;;;26.70;21.40;;;;;;;3.22;100.00;98623.50;5032509;28;20025;-83
2022/11/17 09:29:57;;;;;;;32.17;20.17;;;;;;;3.22;100.00;98602.91;5031904;28;20109;-83
2022/11/17 09:32:23;;;;;;;25.45;20.63;;;;;;;3.25;100.00;98606.22;5031804;28;20056;-83
2022/11/17 09:34:48;;;;;;;41.50;29.85;;;;;;;3.30;100.00;98594.94;5031918;28;20104;-83
2022/11/17 09:37:13;;;;;;;34.55;26.08;;;;;;;3.34;100.00;98599.94;5013845;28;20108;-83
2022/11/17 09:39:39;;;;;;;50.05;33.33;;;;;;;3.40;100.00;98588.56;5032061;28;20113;-83
2022/11/17 09:42:04;;;;;;;33.95;23.33;;;;;;;3.37;100.00;98580.94;5031826;28;20449;-83
2022/11/17 09:44:30;;;;;;;19.75;17.17;;;;;;;3.47;100.00;98608.91;5031932;28;20033;-83
2022/11/17 09:47:05;;;;;;;30.33;22.58;;;;;;;3.47;100.00;98624.34;5031677;28;20461;-83
2022/11/17 09:49:52;;;;;;;23.77;18.05;;;;;;;3.46;100.00;98612.38;5031782;28;20025;-84
2022/11/17 09:52:28;;;;;;;30.00;22.60;;;;;;;3.38;100.00;98622.09;5030703;28;20029;-84
2022/11/17 09:54:59;;;;;;;22.10;16.70;;;;;;;3.33;100.00;98607.69;5030284;28;20512;-84
2022/11/17 09:57:32;;;;;;;25.60;18.65;;;;;;;3.36;100.00;98597.28;5031704;28;20505;-84
2022/11/17 10:00:27;;;;;;;43.42;24.73;;;;;;;3.52;100.00;98603.59;5031437;28;20025;-84
2022/11/17 10:02:53;;;;;;;44.78;26.95;;;;;;;3.45;100.00;98581.53;4951113;29;20035;-84
2022/11/17 10:05:26;;;;;;;64.63;42.17;;;;;;;3.55;100.00;98584.66;4951317;29;20372;-84
2022/11/17 10:07:55;;;;;;;29.80;19.00;;;;;;;3.63;100.00;98592.94;4950980;29;20483;-84
2022/11/17 10:10:36;;;;;;;34.72;21.27;;;;;;;3.64;100.00;98586.88;4951197;29;20490;-84
2022/11/17 10:13:04;;;;;;;40.08;22.80;;;;;;;3.68;100.00;98591.88;4950909;29;20079;-83
2022/11/17 10:15:55;;;;;;;18.02;14.68;;;;;;;3.67;100.00;98582.47;4951900;28;20027;-84
2022/11/17 10:18:21;;;;;;;22.30;15.75;;;;;;;3.64;100.00;98580.00;4935578;29;20036;-84
2022/11/17 10:20:46;;;;;;;25.83;17.15;;;;;;;3.63;100.00;98593.78;4935860;29;20228;-84
2022/11/17 10:23:17;;;;;;;36.00;20.08;;;;;;;3.62;100.00;98594.66;4935406;29;20471;-84
2022/11/17 10:25:47;;;;;;;18.20;15.18;;;;;;;3.47;100.00;98588.31;4916400;29;20036;-84
2022/11/17 10:28:30;;;;;;;17.55;14.10;;;;;;;3.47;100.00;98587.47;4910278;29;20507;-83
2022/11/17 10:31:03;;;;;;;14.65;13.05;;;;;;;3.42;100.00;98599.69;4899368;29;20100;-84
2022/11/17 10:33:43;;;;;;;18.48;15.25;;;;;;;3.36;100.00;98599.88;4883401;29;20119;-84
2022/11/17 10:36:21;;;;;;;17.80;15.05;;;;;;;3.35;100.00;98582.75;4901608;29;20065;-84
2022/11/17 10:38:50;;;;;;;19.35;15.40;;;;;;;3.43;100.00;98593.63;4918870;28;20116;-84
2022/11/17 10:41:32;;;;;;;29.25;18.05;;;;;;;3.41;100.00;98561.94;4963493;28;20034;-84
2022/11/17 10:44:12;;;;;;;18.85;13.88;;;;;;;3.40;100.00;98568.81;4963381;28;20039;-83
2022/11/17 10:46:52;;;;;;;16.83;13.38;;;;;;;3.52;100.00;98577.84;4963522;28;20117;-83
2022/11/17 10:49:33;;;;;;;18.13;13.27;;;;;;;3.48;100.00;98566.81;4941110;29;20589;-83
2022/11/17 10:52:10;;;;;;;30.42;20.35;;;;;;;3.53;100.00;98583.84;4951153;29;20145;-83
2022/11/17 10:54:36;;;;;;;36.45;28.75;;;;;;;3.45;100.00;98561.78;4951090;29;20102;-83
2022/11/17 10:57:06;;;;;;;17.65;13.30;;;;;;;3.41;100.00;98569.66;4965130;28;20035;-83
2022/11/17 10:59:41;;;;;;;17.55;12.38;;;;;;;3.38;100.00;98580.91;4957064;28;20038;-83
2022/11/17 11:02:25;;;;;;;14.88;11.65;;;;;;;3.33;100.00;98575.09;4991203;28;20029;-83
2022/11/17 11:05:07;;;;;;;10.60;9.50;;;;;;;3.33;100.00;98590.53;5017001;28;20041;-83
2022/11/17 11:07:32;;;;;;;20.58;13.98;;;;;;;3.35;100.00;98588.75;5034965;28;20487;-83
2022/11/17 11:10:09;;;;;;;13.95;10.70;;;;;;;3.36;100.00;98587.84;5034336;28;20026;-83
2022/11/17 11:12:46;;;;;;;16.65;11.68;;;;;;;3.38;100.00;98574.94;5034558;28;20061;-84
2022/11/17 11:15:20;;;;;;;21.50;14.55;;;;;;;3.34;100.00;98575.94;5011565;28;20038;-83
2022/11/17 11:17:46;;;;;;;11.75;10.02;;;;;;;3.33;100.00;98576.81;5012388;28;20056;-83
2022/11/17 11:20:13;;;;;;;10.70;9.57;;;;;;;3.34;100.00;98589.63;5011790;28;20466;-83
2022/11/17 11:22:57;;;;;;;11.15;9.35;;;;;;;3.36;100.00;98592.16;5012046;28;20442;-83
2022/11/17 11:25:50;;;;;;;28.17;22.92;;;;;;;3.37;100.00;98584.41;5012394;28;20497;-83
2022/11/17 11:28:43;;;;;;;12.38;9.45;;;;;;;3.38;100.00;98590.38;5011431;28;20022;-83
2022/11/17 11:31:38;;;;;;;10.75;7.88;;;;;;;3.40;100.00;98599.72;5011542;28;20444;-83
2022/11/17 11:34:28;;;;;;;16.13;11.57;;;;;;;3.43;100.00;98606.50;5020997;28;20046;-83
2022/11/17 11:37:22;;;;;;;9.77;8.77;;;;;;;3.39;100.00;98598.03;5031163;28;20032;-83
2022/11/17 11:40:01;;;;;;;10.82;8.60;;;;;;;3.42;100.00;98591.97;4952703;29;20043;-84
2022/11/17 11:42:46;;;;;;;10.63;7.63;;;;;;;3.41;100.00;98593.69;4953186;29;20498;-84
2022/11/17 11:45:48;;;;;;;12.02;8.93;;;;;;;3.42;100.00;98591.97;4953979;28;20496;-84
2022/11/17 11:48:26;;;;;;;14.15;12.27;;;;;;;3.37;100.00;98593.81;4971919;28;20038;-83
2022/11/17 11:50:56;;;;;;;17.70;13.23;;;;;;;3.40;100.00;98588.56;4972485;28;20043;-83
2022/11/17 11:53:31;;;;;;;20.50;14.82;;;;;;;3.40;100.00;98589.41;4956347;28;20027;-84
2022/11/17 11:56:33;;;;;;;334.08;197.75;;;;;;;3.41;100.00;98585.97;4956108;28;20375;-83
2022/11/17 11:59:20;;;;;;;344.30;233.95;;;;;;;3.44;100.00;98587.56;4955873;28;20509;-83